Time;durP1;ratioP1;P1;durP2;ratioP2;P2;SDS_P1;SDS_P2;PMS_P1;PMS_P2;Temp;Humidity;BMP_temperature;BMP_pressure;BME280_temperature;BME280_humidity;BME280_pressure;Samples;Min_cycle;Max_cycle;Signal;HPM_P1;HPM_P2
2024/01/14 05:05:21;;;;;;;0.50;0.50;;;-2.10;99.90;;;;;;6075850;22;20251;-66
2024/01/14 05:07:47;;;;;;;0.50;0.50;;;-2.10;99.90;;;;;;5014461;28;20199;-66
2024/01/14 05:10:13;;;;;;;0.40;0.40;;;-2.10;99.90;;;;;;5015110;28;20184;-66
2024/01/14 05:12:38;;;;;;;0.50;0.50;;;-2.10;99.90;;;;;;5015086;28;20178;-64
2024/01/14 05:15:05;;;;;;;0.40;0.40;;;-2.10;99.90;;;;;;5014917;28;20179;-64
2024/01/14 05:17:30;;;;;;;0.40;0.40;;;-2.10;99.90;;;;;;5015056;28;20206;-66
2024/01/14 05:19:56;;;;;;;0.40;0.40;;;-2.00;99.90;;;;;;5015064;28;20477;-65
2024/01/14 05:22:22;;;;;;;0.40;0.40;;;-2.00;99.90;;;;;;5015060;28;20583;-65
2024/01/14 05:24:50;;;;;;;0.40;0.40;;;-2.10;99.90;;;;;;5014689;28;20173;-64
2024/01/14 05:27:16;;;;;;;0.38;0.38;;;-2.00;99.90;;;;;;5014753;28;20201;-64
2024/01/14 05:29:45;;;;;;;0.40;0.40;;;-2.10;99.90;;;;;;5014817;28;20172;-66
2024/01/14 05:32:13;;;;;;;0.40;0.40;;;-2.00;99.90;;;;;;5014806;28;20418;-65
2024/01/14 05:34:39;;;;;;;0.40;0.40;;;-2.00;99.90;;;;;;5014033;28;20238;-65
2024/01/14 05:37:05;;;;;;;3.40;1.70;;;-2.00;99.90;;;;;;5013854;28;20210;-65
2024/01/14 05:39:31;;;;;;;0.43;0.43;;;-2.00;99.90;;;;;;5014578;28;20164;-65
2024/01/14 05:41:57;;;;;;;0.40;0.40;;;-2.00;99.90;;;;;;5014704;28;20181;-65
2024/01/14 05:44:23;;;;;;;0.50;0.50;;;-2.00;99.90;;;;;;5014328;28;20492;-65
2024/01/14 05:46:48;;;;;;;0.50;0.50;;;-2.10;99.90;;;;;;5014438;28;20197;-64
2024/01/14 05:49:14;;;;;;;0.40;0.40;;;-2.10;99.90;;;;;;5014614;28;20253;-66
2024/01/14 05:51:39;;;;;;;0.40;0.40;;;-2.00;99.90;;;;;;5014411;28;20506;-64
2024/01/14 05:54:05;;;;;;;0.50;0.50;;;-2.00;99.90;;;;;;5014256;28;20287;-65
2024/01/14 05:56:30;;;;;;;0.30;0.30;;;-2.00;99.90;;;;;;5013904;28;20191;-65
2024/01/14 05:58:56;;;;;;;0.40;0.40;;;-1.90;99.90;;;;;;5014334;28;20198;-63
2024/01/14 06:01:22;;;;;;;0.40;0.40;;;-1.90;99.90;;;;;;5014314;28;20251;-63
2024/01/14 06:03:48;;;;;;;0.40;0.40;;;-1.90;99.90;;;;;;5014199;28;20256;-66
2024/01/14 06:06:13;;;;;;;0.40;0.40;;;-2.00;99.90;;;;;;5013644;28;20668;-65
2024/01/14 06:08:41;;;;;;;0.40;0.40;;;-1.90;99.90;;;;;;5014089;28;20302;-64
2024/01/14 06:11:07;;;;;;;0.40;0.40;;;-1.90;99.90;;;;;;5014220;28;20605;-67
2024/01/14 06:13:33;;;;;;;0.50;0.50;;;-1.90;99.90;;;;;;5014098;28;20253;-64
2024/01/14 06:15:59;;;;;;;0.40;0.40;;;-1.90;99.90;;;;;;5013445;28;20203;-65
2024/01/14 06:18:25;;;;;;;0.50;0.50;;;-1.90;99.90;;;;;;5013772;28;20182;-64
2024/01/14 06:20:50;;;;;;;0.40;0.40;;;-1.90;99.90;;;;;;5013825;28;20164;-66
2024/01/14 06:23:16;;;;;;;0.50;0.50;;;-2.00;99.90;;;;;;5014158;28;20198;-63
2024/01/14 06:25:42;;;;;;;0.50;0.50;;;-2.00;99.90;;;;;;5013398;28;20194;-66
2024/01/14 06:28:07;;;;;;;1.27;1.27;;;-2.10;99.90;;;;;;4996143;28;20481;-63
2024/01/14 06:30:34;;;;;;;0.73;0.73;;;-2.10;99.90;;;;;;5013894;28;20204;-64
2024/01/14 06:32:59;;;;;;;0.50;0.50;;;-2.10;99.90;;;;;;5013582;28;20214;-64
2024/01/14 06:35:25;;;;;;;0.40;0.40;;;-2.00;99.90;;;;;;5013324;28;20590;-66
2024/01/14 06:37:52;;;;;;;0.50;0.50;;;-2.00;99.90;;;;;;5013666;28;20242;-66
2024/01/14 06:40:17;;;;;;;0.50;0.50;;;-2.00;99.90;;;;;;5013601;28;20633;-64
2024/01/14 06:42:43;;;;;;;2.93;2.83;;;-2.10;99.90;;;;;;5013562;28;20596;-64
2024/01/14 06:45:12;;;;;;;0.50;0.50;;;-2.10;99.90;;;;;;5013188;28;20168;-64
2024/01/14 06:47:38;;;;;;;0.50;0.50;;;-2.10;99.90;;;;;;5014286;28;20243;-65
2024/01/14 06:50:05;;;;;;;0.40;0.40;;;-2.10;99.90;;;;;;5019445;28;20187;-63
2024/01/14 06:52:30;;;;;;;2.38;2.30;;;-2.20;99.90;;;;;;5033294;28;20197;-65
2024/01/14 06:54:56;;;;;;;1.50;1.50;;;-2.10;99.90;;;;;;5014959;28;20182;-64
2024/01/14 06:57:22;;;;;;;0.40;0.40;;;-2.10;99.90;;;;;;5033066;28;20257;-65
2024/01/14 06:59:48;;;;;;;0.38;0.38;;;-2.20;99.90;;;;;;5033334;28;20167;-62
2024/01/14 07:02:13;;;;;;;0.40;0.40;;;-2.20;99.90;;;;;;5031142;28;20174;-63
2024/01/14 07:04:39;;;;;;;0.40;0.40;;;-2.30;99.90;;;;;;5012829;28;20183;-63
2024/01/14 07:07:05;;;;;;;0.40;0.40;;;-2.30;99.90;;;;;;5013054;28;20217;-66
2024/01/14 07:09:30;;;;;;;0.70;0.70;;;-2.30;99.90;;;;;;5013289;28;20183;-65
2024/01/14 07:11:56;;;;;;;0.40;0.40;;;-2.30;99.90;;;;;;5013160;28;20167;-65
2024/01/14 07:14:24;;;;;;;0.43;0.43;;;-2.30;99.90;;;;;;5013046;28;20173;-66
2024/01/14 07:16:50;;;;;;;0.50;0.50;;;-2.30;99.90;;;;;;5013078;28;20202;-63
2024/01/14 07:19:15;;;;;;;0.40;0.40;;;-2.20;99.90;;;;;;5013120;28;20187;-64
2024/01/14 07:21:41;;;;;;;0.50;0.50;;;-2.20;99.90;;;;;;5013150;28;20648;-64
2024/01/14 07:24:07;;;;;;;0.40;0.40;;;-2.10;99.90;;;;;;5013513;28;20204;-66
2024/01/14 07:26:32;;;;;;;0.40;0.40;;;-2.10;99.90;;;;;;5012812;28;20194;-64
2024/01/14 07:28:58;;;;;;;0.60;0.60;;;-2.10;99.90;;;;;;5013695;28;20253;-66
2024/01/14 07:31:27;;;;;;;0.40;0.40;;;-2.10;99.90;;;;;;5016928;28;20182;-64
2024/01/14 07:33:53;;;;;;;0.40;0.40;;;-2.10;99.90;;;;;;5036566;28;20174;-65
2024/01/14 07:36:19;;;;;;;0.40;0.40;;;-2.10;99.90;;;;;;5036139;28;20772;-67
2024/01/14 07:38:45;;;;;;;0.40;0.40;;;-2.10;99.90;;;;;;5036651;28;20220;-66
2024/01/14 07:41:15;;;;;;;0.40;0.40;;;-2.10;99.90;;;;;;5036213;28;20250;-64
2024/01/14 07:43:41;;;;;;;0.40;0.40;;;-2.20;99.90;;;;;;5025887;28;20179;-66
2024/01/14 07:46:07;;;;;;;0.40;0.40;;;-2.20;99.90;;;;;;5016046;28;20252;-65
2024/01/14 07:48:34;;;;;;;0.40;0.40;;;-2.20;99.90;;;;;;5015847;28;20185;-63
2024/01/14 07:51:00;;;;;;;0.40;0.40;;;-2.20;99.90;;;;;;4998578;28;20175;-67
2024/01/14 07:53:25;;;;;;;0.40;0.40;;;-2.20;99.90;;;;;;5016433;28;20175;-64
2024/01/14 07:55:51;;;;;;;0.40;0.40;;;-2.20;99.90;;;;;;5015927;28;20198;-66
2024/01/14 07:58:17;;;;;;;0.40;0.40;;;-2.20;99.90;;;;;;5016264;28;20305;-64
2024/01/14 08:00:44;;;;;;;0.50;0.50;;;-2.10;99.90;;;;;;5016593;28;20172;-66
2024/01/14 08:03:10;;;;;;;0.63;0.63;;;-2.10;99.90;;;;;;5015930;28;20184;-64
2024/01/14 08:05:37;;;;;;;0.40;0.40;;;-2.00;99.90;;;;;;5015591;28;20191;-66
2024/01/14 08:08:06;;;;;;;0.40;0.40;;;-1.90;99.90;;;;;;5015901;28;20611;-65
2024/01/14 08:10:32;;;;;;;0.40;0.40;;;-1.90;99.90;;;;;;5016288;28;20241;-67
2024/01/14 08:12:59;;;;;;;0.35;0.35;;;-1.80;99.90;;;;;;5016025;28;20236;-65
2024/01/14 08:15:24;;;;;;;0.30;0.30;;;-1.80;99.90;;;;;;5015547;28;20243;-65
2024/01/14 08:17:50;;;;;;;0.40;0.40;;;-1.80;99.90;;;;;;5033095;28;20210;-65
2024/01/14 08:20:16;;;;;;;0.30;0.30;;;-1.80;99.90;;;;;;5018010;28;20397;-64
2024/01/14 08:22:42;;;;;;;0.40;0.40;;;-1.70;99.90;;;;;;5035609;28;20447;-64
2024/01/14 08:25:07;;;;;;;0.40;0.40;;;-1.60;99.90;;;;;;5035187;28;20239;-63
2024/01/14 08:27:34;;;;;;;0.40;0.40;;;-1.60;99.90;;;;;;5035576;28;20570;-65
2024/01/14 08:29:59;;;;;;;0.40;0.40;;;-1.50;99.90;;;;;;5034045;28;20574;-65
2024/01/14 08:32:25;;;;;;;0.40;0.40;;;-1.40;99.90;;;;;;5019455;28;20186;-64
2024/01/14 08:34:51;;;;;;;0.40;0.40;;;-1.40;99.90;;;;;;5013528;28;20242;-65
2024/01/14 08:37:16;;;;;;;0.47;0.47;;;-1.50;99.90;;;;;;5015805;28;20280;-65
2024/01/14 08:39:42;;;;;;;0.40;0.40;;;-1.50;99.90;;;;;;5023144;28;20420;-64
2024/01/14 08:42:08;;;;;;;1.00;1.00;;;-1.40;99.90;;;;;;5014665;28;20301;-64
2024/01/14 08:44:34;;;;;;;0.40;0.40;;;-1.30;99.90;;;;;;5017249;28;20171;-64
2024/01/14 08:47:01;;;;;;;0.30;0.30;;;-1.20;99.90;;;;;;5015488;28;20700;-65
2024/01/14 08:49:29;;;;;;;1.30;1.30;;;-1.10;99.90;;;;;;5015627;28;20170;-63
2024/01/14 08:51:55;;;;;;;0.30;0.30;;;-1.10;99.90;;;;;;5015548;28;20672;-64
2024/01/14 08:54:21;;;;;;;0.63;0.63;;;-1.00;99.90;;;;;;5014815;28;20178;-65
2024/01/14 08:56:46;;;;;;;0.43;0.43;;;-1.00;99.90;;;;;;5031053;28;20263;-65
2024/01/14 08:59:12;;;;;;;0.50;0.50;;;-0.90;99.90;;;;;;5034891;28;20173;-65
2024/01/14 09:01:38;;;;;;;0.40;0.40;;;-0.80;99.90;;;;;;5034994;28;20170;-64
2024/01/14 09:04:04;;;;;;;0.40;0.40;;;-0.70;99.90;;;;;;5017259;28;20170;-65
2024/01/14 09:06:29;;;;;;;0.40;0.40;;;-0.70;99.90;;;;;;5034202;28;20231;-66
2024/01/14 09:08:55;;;;;;;0.30;0.30;;;-0.70;99.90;;;;;;5034612;28;20500;-64
2024/01/14 09:11:20;;;;;;;0.40;0.40;;;-0.50;99.90;;;;;;5034837;28;20174;-63
2024/01/14 09:13:46;;;;;;;0.30;0.30;;;-0.20;99.90;;;;;;5034730;28;20579;-65
2024/01/14 09:16:12;;;;;;;0.40;0.40;;;0.00;99.90;;;;;;5034035;28;20225;-63
2024/01/14 09:18:38;;;;;;;0.40;0.40;;;0.20;99.90;;;;;;5034755;28;20284;-64
2024/01/14 09:21:03;;;;;;;0.30;0.30;;;0.30;99.90;;;;;;5034778;28;20257;-63
2024/01/14 09:23:31;;;;;;;0.30;0.30;;;0.20;99.90;;;;;;5034668;28;20166;-65
2024/01/14 09:25:57;;;;;;;0.40;0.40;;;0.20;99.90;;;;;;5033760;28;20417;-64
2024/01/14 09:28:25;;;;;;;0.30;0.30;;;0.30;99.90;;;;;;5033670;28;20185;-63
2024/01/14 09:30:51;;;;;;;0.50;0.50;;;0.40;99.90;;;;;;5034603;28;20166;-65
2024/01/14 09:33:17;;;;;;;0.40;0.40;;;0.50;99.90;;;;;;5034585;28;20166;-63
2024/01/14 09:35:43;;;;;;;0.50;0.50;;;0.50;99.90;;;;;;5033837;28;20186;-63
2024/01/14 09:38:09;;;;;;;0.40;0.40;;;0.50;99.90;;;;;;5034385;28;20661;-65
2024/01/14 09:40:37;;;;;;;0.40;0.40;;;0.40;99.90;;;;;;5034050;28;20915;-63
2024/01/14 09:43:06;;;;;;;0.40;0.40;;;0.60;99.90;;;;;;5025900;28;20263;-63
2024/01/14 09:45:35;;;;;;;0.40;0.40;;;0.70;99.90;;;;;;5014065;28;20755;-64
2024/01/14 09:48:01;;;;;;;0.30;0.30;;;0.70;99.90;;;;;;5014878;28;20217;-64
2024/01/14 09:50:28;;;;;;;0.50;0.50;;;0.60;99.90;;;;;;5014822;28;20179;-65
2024/01/14 09:52:57;;;;;;;0.40;0.40;;;0.60;99.90;;;;;;5013563;28;20327;-63
2024/01/14 09:55:24;;;;;;;0.30;0.30;;;0.70;99.90;;;;;;5014334;28;20236;-66
2024/01/14 09:57:52;;;;;;;0.40;0.40;;;0.90;99.90;;;;;;5014523;28;20298;-65
2024/01/14 10:00:21;;;;;;;0.30;0.30;;;1.20;99.90;;;;;;5014464;28;20204;-68
2024/01/14 10:02:47;;;;;;;0.30;0.30;;;1.40;99.90;;;;;;5014303;28;20173;-63
2024/01/14 10:05:14;;;;;;;0.30;0.30;;;1.80;99.90;;;;;;5017259;28;20646;-66
2024/01/14 10:07:41;;;;;;;0.60;0.60;;;1.90;99.90;;;;;;5014334;28;20435;-66
2024/01/14 10:10:07;;;;;;;0.40;0.40;;;2.00;99.90;;;;;;5014311;28;20172;-64
2024/01/14 10:12:33;;;;;;;0.47;0.47;;;2.10;99.90;;;;;;5014535;28;20170;-67
2024/01/14 10:14:59;;;;;;;0.30;0.30;;;2.20;99.90;;;;;;5013698;28;20534;-65
2024/01/14 10:17:26;;;;;;;0.60;0.60;;;2.50;99.90;;;;;;5013918;28;20220;-65
2024/01/14 10:19:55;;;;;;;0.40;0.40;;;2.80;99.90;;;;;;5013653;28;20258;-65
2024/01/14 10:22:21;;;;;;;0.98;0.98;;;3.00;99.90;;;;;;5013629;28;20644;-64
2024/01/14 10:24:54;;;;;;;0.37;0.37;;;3.20;99.90;;;;;;5028581;28;20177;-65
2024/01/14 10:27:22;;;;;;;0.30;0.30;;;3.20;99.90;;;;;;5007941;28;20285;-64
2024/01/14 10:29:49;;;;;;;0.32;0.32;;;3.20;99.90;;;;;;5021679;28;20223;-64
2024/01/14 10:32:15;;;;;;;0.40;0.40;;;3.10;99.90;;;;;;4997238;28;20306;-63
2024/01/14 10:34:41;;;;;;;0.30;0.30;;;3.20;99.90;;;;;;5012932;28;20202;-65
2024/01/14 10:37:07;;;;;;;0.83;0.83;;;3.30;99.90;;;;;;4994956;28;20711;-65
2024/01/14 10:39:34;;;;;;;0.30;0.30;;;3.30;99.90;;;;;;5012603;28;20448;-65
2024/01/14 10:42:01;;;;;;;1.38;1.27;;;3.40;99.90;;;;;;5013377;28;20175;-65
2024/01/14 10:44:27;;;;;;;0.50;0.50;;;3.50;99.70;;;;;;5012622;28;20179;-65
2024/01/14 10:46:54;;;;;;;0.30;0.30;;;3.60;99.30;;;;;;5013057;28;20194;-65
2024/01/14 10:49:29;;;;;;;0.50;0.50;;;3.50;98.90;;;;;;4995709;28;20186;-64
2024/01/14 10:51:58;;;;;;;0.30;0.30;;;3.30;99.10;;;;;;5013475;28;20181;-63
2024/01/14 10:54:26;;;;;;;0.40;0.40;;;3.20;99.30;;;;;;5021492;28;20294;-64
2024/01/14 10:57:08;;;;;;;0.70;0.60;;;3.20;99.80;;;;;;5032024;28;20197;-64
2024/01/14 10:59:36;;;;;;;0.40;0.40;;;3.20;99.30;;;;;;5033174;28;20167;-64
2024/01/14 11:02:05;;;;;;;0.30;0.30;;;3.30;99.30;;;;;;5015274;28;20174;-63
2024/01/14 11:04:31;;;;;;;0.32;0.32;;;3.10;98.80;;;;;;5034895;28;20257;-64
2024/01/14 11:06:56;;;;;;;0.40;0.40;;;2.90;99.20;;;;;;5037136;28;20275;-64
2024/01/14 11:09:22;;;;;;;0.30;0.30;;;2.80;99.70;;;;;;5026133;28;20663;-64
2024/01/14 11:12:05;;;;;;;0.40;0.40;;;2.90;99.90;;;;;;5017524;28;20169;-63
2024/01/14 11:14:43;;;;;;;0.30;0.30;;;3.10;99.90;;;;;;4999170;28;20178;-64
2024/01/14 11:17:38;;;;;;;0.40;0.40;;;3.40;99.90;;;;;;5017341;28;20614;-64
2024/01/14 11:20:05;;;;;;;0.50;0.50;;;3.80;99.90;;;;;;5017318;28;20640;-64
2024/01/14 11:22:31;;;;;;;0.30;0.30;;;3.90;98.90;;;;;;5017233;28;20233;-64
2024/01/14 11:24:57;;;;;;;0.30;0.30;;;3.90;98.00;;;;;;5016470;28;20262;-64
2024/01/14 11:27:23;;;;;;;0.30;0.30;;;3.80;97.70;;;;;;5017237;28;20259;-64
2024/01/14 11:29:48;;;;;;;0.30;0.30;;;3.70;97.50;;;;;;5017107;28;20492;-64
2024/01/14 11:32:20;;;;;;;0.30;0.30;;;3.40;97.80;;;;;;5016914;28;20178;-64
2024/01/14 11:34:46;;;;;;;0.35;0.35;;;3.20;98.10;;;;;;5016485;28;20192;-64
2024/01/14 11:37:37;;;;;;;0.57;0.57;;;2.80;98.70;;;;;;5016498;28;20210;-63
2024/01/14 11:40:06;;;;;;;0.40;0.40;;;2.50;99.40;;;;;;4997154;28;20173;-64
2024/01/14 11:42:32;;;;;;;0.40;0.40;;;2.40;99.50;;;;;;4997157;28;20527;-64
2024/01/14 11:45:00;;;;;;;0.40;0.40;;;2.40;99.60;;;;;;4979552;28;20712;-63
2024/01/14 11:47:45;;;;;;;0.30;0.30;;;2.40;99.90;;;;;;4979072;28;20606;-63
2024/01/14 11:50:14;;;;;;;0.35;0.35;;;2.30;99.90;;;;;;4997020;28;20646;-64
2024/01/14 11:52:47;;;;;;;0.40;0.40;;;2.30;99.90;;;;;;5003641;28;20714;-64
2024/01/14 11:55:14;;;;;;;0.30;0.30;;;2.20;99.90;;;;;;5035792;28;20262;-64
2024/01/14 11:57:41;;;;;;;0.30;0.30;;;2.20;99.90;;;;;;5036221;28;20195;-64
2024/01/14 12:00:07;;;;;;;0.32;0.32;;;2.10;99.90;;;;;;5036203;28;20190;-64
2024/01/14 12:02:34;;;;;;;1.05;1.02;;;1.90;99.90;;;;;;5018458;28;20214;-65
2024/01/14 12:05:15;;;;;;;0.30;0.30;;;1.80;99.90;;;;;;5035663;28;20179;-65
2024/01/14 12:07:42;;;;;;;0.40;0.40;;;1.60;99.90;;;;;;5029931;28;20215;-64
2024/01/14 12:10:13;;;;;;;0.40;0.40;;;1.60;99.90;;;;;;4998792;28;20221;-65
2024/01/14 12:12:39;;;;;;;0.40;0.40;;;1.60;99.90;;;;;;5016174;28;20167;-63
2024/01/14 12:15:05;;;;;;;0.30;0.30;;;1.70;99.90;;;;;;5015299;28;20257;-63
2024/01/14 12:17:31;;;;;;;3.65;3.45;;;1.80;99.90;;;;;;5015290;28;20468;-64
2024/01/14 12:20:03;;;;;;;0.40;0.40;;;1.80;99.90;;;;;;5016146;28;20250;-63
2024/01/14 12:22:29;;;;;;;0.30;0.30;;;1.80;99.90;;;;;;5016078;28;20167;-64
2024/01/14 12:24:55;;;;;;;0.40;0.40;;;1.90;99.90;;;;;;5015935;28;20228;-64
2024/01/14 12:27:20;;;;;;;0.40;0.40;;;1.80;99.90;;;;;;5015789;28;20199;-64
2024/01/14 12:29:46;;;;;;;0.30;0.30;;;1.80;99.90;;;;;;5015974;28;20175;-64
2024/01/14 12:32:12;;;;;;;0.40;0.40;;;1.70;99.90;;;;;;5016363;28;20167;-64
2024/01/14 12:34:38;;;;;;;0.37;0.37;;;1.70;99.90;;;;;;5015550;28;20171;-65
2024/01/14 12:37:05;;;;;;;0.40;0.40;;;1.80;99.90;;;;;;5015475;28;20281;-64
2024/01/14 12:39:31;;;;;;;0.40;0.40;;;1.80;99.90;;;;;;5015633;28;20186;-64
2024/01/14 12:41:57;;;;;;;0.40;0.40;;;1.80;99.90;;;;;;5015703;28;20629;-63
2024/01/14 12:44:24;;;;;;;0.40;0.40;;;1.80;99.90;;;;;;5015249;28;20174;-64
2024/01/14 12:46:52;;;;;;;0.50;0.50;;;1.90;99.90;;;;;;5015468;28;20656;-65
2024/01/14 12:49:18;;;;;;;0.65;0.65;;;1.90;99.90;;;;;;5015371;28;20171;-64
2024/01/14 12:51:44;;;;;;;0.50;0.50;;;2.00;99.90;;;;;;5020063;28;20663;-63
2024/01/14 12:54:09;;;;;;;0.40;0.40;;;2.10;99.90;;;;;;5035123;28;20174;-64
2024/01/14 12:56:37;;;;;;;0.30;0.30;;;2.10;99.90;;;;;;5034914;28;20210;-64
2024/01/14 12:59:03;;;;;;;0.40;0.40;;;2.10;99.90;;;;;;5035105;28;20167;-64
2024/01/14 13:01:29;;;;;;;0.30;0.30;;;2.10;99.90;;;;;;5018845;28;20177;-63
2024/01/14 13:03:54;;;;;;;0.40;0.40;;;2.10;99.90;;;;;;5015264;28;20448;-67
2024/01/14 13:06:20;;;;;;;0.30;0.30;;;2.10;99.90;;;;;;5014513;28;20677;-64
2024/01/14 13:08:47;;;;;;;0.30;0.30;;;2.10;99.90;;;;;;5015003;28;20190;-63
2024/01/14 13:11:12;;;;;;;0.30;0.30;;;2.00;99.90;;;;;;5014411;28;20182;-63
2024/01/14 13:13:38;;;;;;;0.50;0.50;;;2.10;99.90;;;;;;5015119;28;20546;-63
2024/01/14 13:16:04;;;;;;;0.40;0.40;;;2.10;99.90;;;;;;5014194;28;20198;-64
2024/01/14 13:18:30;;;;;;;0.60;0.60;;;2.10;99.90;;;;;;4997395;28;20175;-68
2024/01/14 13:20:57;;;;;;;0.43;0.43;;;2.10;99.90;;;;;;5014873;28;20174;-64
2024/01/14 13:23:23;;;;;;;0.30;0.30;;;2.00;99.90;;;;;;5015046;28;20190;-64
2024/01/14 13:25:49;;;;;;;0.30;0.30;;;2.00;99.90;;;;;;5014430;28;20643;-63
2024/01/14 13:28:20;;;;;;;0.47;0.47;;;2.00;99.90;;;;;;5014563;28;20186;-64
2024/01/14 13:30:48;;;;;;;0.43;0.43;;;2.00;99.90;;;;;;5028930;28;20527;-63
2024/01/14 13:33:14;;;;;;;0.30;0.30;;;1.90;99.90;;;;;;5034736;28;20188;-64
2024/01/14 13:35:40;;;;;;;0.40;0.40;;;1.80;99.90;;;;;;5033909;28;20182;-63
2024/01/14 13:38:05;;;;;;;0.40;0.40;;;1.80;99.90;;;;;;5016493;28;20268;-63
2024/01/14 13:40:33;;;;;;;0.40;0.40;;;1.90;99.90;;;;;;5034483;28;20639;-64
2024/01/14 13:42:59;;;;;;;0.40;0.40;;;1.90;99.90;;;;;;5034142;28;20254;-63
2024/01/14 13:45:24;;;;;;;0.40;0.40;;;1.90;99.90;;;;;;5015640;28;20272;-64
2024/01/14 13:47:50;;;;;;;1.83;1.67;;;1.90;99.90;;;;;;5016370;28;20178;-62
2024/01/14 13:50:16;;;;;;;0.30;0.30;;;1.90;99.90;;;;;;5034028;28;20182;-63
2024/01/14 13:52:42;;;;;;;0.40;0.40;;;1.90;99.90;;;;;;5034042;28;20631;-63
2024/01/14 13:55:07;;;;;;;0.40;0.40;;;1.90;99.90;;;;;;5033546;28;20182;-64
2024/01/14 13:57:33;;;;;;;0.40;0.40;;;2.00;99.90;;;;;;5033764;28;20202;-64
2024/01/14 13:59:58;;;;;;;0.30;0.30;;;2.00;99.90;;;;;;5021076;28;20175;-63
2024/01/14 14:02:26;;;;;;;0.93;0.93;;;2.10;99.90;;;;;;5014116;28;20236;-63
2024/01/14 14:04:51;;;;;;;0.30;0.30;;;2.10;99.90;;;;;;5022909;28;20716;-64
2024/01/14 14:07:17;;;;;;;0.30;0.30;;;2.10;99.90;;;;;;5033546;28;20288;-63
2024/01/14 14:09:42;;;;;;;0.40;0.40;;;2.00;99.90;;;;;;5026984;28;20224;-63
2024/01/14 14:12:09;;;;;;;0.40;0.40;;;2.10;99.90;;;;;;5013979;28;20174;-63
2024/01/14 14:14:35;;;;;;;0.38;0.38;;;2.00;99.90;;;;;;5013670;28;20671;-64
2024/01/14 14:17:01;;;;;;;0.40;0.40;;;1.90;99.90;;;;;;5013860;28;20203;-66
2024/01/14 14:19:27;;;;;;;0.40;0.40;;;1.80;99.90;;;;;;5022150;28;20540;-65
2024/01/14 14:21:55;;;;;;;0.30;0.30;;;1.80;99.90;;;;;;5033635;28;20528;-66
2024/01/14 14:24:21;;;;;;;0.40;0.40;;;1.80;99.90;;;;;;5033214;28;20169;-66
2024/01/14 14:26:47;;;;;;;0.40;0.40;;;1.80;99.90;;;;;;5033544;28;20190;-65
2024/01/14 14:29:12;;;;;;;0.30;0.30;;;1.80;99.90;;;;;;5016220;28;20181;-66
2024/01/14 14:31:39;;;;;;;0.30;0.30;;;1.70;99.90;;;;;;5020165;28;20175;-66
2024/01/14 14:34:05;;;;;;;0.75;0.75;;;1.60;99.90;;;;;;5010488;28;20217;-64
2024/01/14 14:36:31;;;;;;;0.40;0.40;;;1.60;99.90;;;;;;5013308;28;20234;-63
2024/01/14 14:38:56;;;;;;;0.50;0.50;;;1.50;99.90;;;;;;5013579;28;20246;-63
2024/01/14 14:41:23;;;;;;;0.40;0.40;;;1.40;99.90;;;;;;5012876;28;20197;-63
2024/01/14 14:43:48;;;;;;;0.82;0.82;;;1.40;99.90;;;;;;5013409;28;20246;-65
2024/01/14 14:46:14;;;;;;;0.40;0.40;;;1.30;99.90;;;;;;4995333;28;20221;-65
2024/01/14 14:48:40;;;;;;;2.13;2.13;;;1.30;99.90;;;;;;5013293;28;20433;-65
2024/01/14 14:51:05;;;;;;;0.63;0.63;;;1.30;99.90;;;;;;5012268;28;20205;-63
2024/01/14 14:53:31;;;;;;;0.40;0.40;;;1.30;99.90;;;;;;5013255;28;20171;-65
2024/01/14 14:55:56;;;;;;;0.47;0.47;;;1.30;99.90;;;;;;4995297;28;20198;-65
2024/01/14 14:58:22;;;;;;;0.33;0.33;;;1.20;99.90;;;;;;5013445;28;20177;-63
2024/01/14 15:00:48;;;;;;;0.97;0.97;;;1.20;99.90;;;;;;5013193;28;20175;-65
2024/01/14 15:03:14;;;;;;;0.80;0.80;;;1.20;99.90;;;;;;5012943;28;20166;-64
2024/01/14 15:05:40;;;;;;;0.40;0.40;;;1.10;99.90;;;;;;5012586;28;20277;-64
2024/01/14 15:08:05;;;;;;;0.60;0.60;;;1.20;99.90;;;;;;5012816;28;20579;-64
2024/01/14 15:10:31;;;;;;;0.40;0.40;;;1.10;99.90;;;;;;5012488;28;20667;-65
2024/01/14 15:12:57;;;;;;;0.40;0.40;;;1.10;99.90;;;;;;5012969;28;20506;-66
2024/01/14 15:15:23;;;;;;;0.30;0.30;;;1.00;99.90;;;;;;5029063;28;20672;-63
2024/01/14 15:17:49;;;;;;;0.40;0.40;;;1.10;99.90;;;;;;5012973;28;20194;-63
2024/01/14 15:20:14;;;;;;;0.40;0.40;;;1.00;99.90;;;;;;5013914;28;20174;-62
2024/01/14 15:22:40;;;;;;;0.40;0.40;;;0.90;99.90;;;;;;5012918;28;20201;-62
2024/01/14 15:25:06;;;;;;;0.30;0.30;;;0.90;99.90;;;;;;5012218;28;20202;-65
2024/01/14 15:27:33;;;;;;;0.40;0.40;;;0.80;99.90;;;;;;5023815;28;20193;-62
2024/01/14 15:29:58;;;;;;;0.40;0.40;;;0.80;99.90;;;;;;5032516;28;20166;-66
2024/01/14 15:32:24;;;;;;;0.30;0.30;;;0.70;99.90;;;;;;5013200;28;20201;-65
2024/01/14 15:34:51;;;;;;;0.40;0.40;;;0.60;99.90;;;;;;5012158;28;20189;-65
2024/01/14 15:37:16;;;;;;;0.40;0.40;;;0.60;99.90;;;;;;5012601;28;20231;-64
2024/01/14 15:39:42;;;;;;;0.50;0.50;;;0.50;99.90;;;;;;5020521;28;20200;-66
2024/01/14 15:42:08;;;;;;;0.40;0.40;;;0.40;99.90;;;;;;5015722;28;20186;-65
2024/01/14 15:44:34;;;;;;;0.40;0.40;;;0.40;99.90;;;;;;5012288;28;20178;-65
2024/01/14 15:47:02;;;;;;;0.47;0.47;;;0.40;99.90;;;;;;5012495;28;20202;-65
2024/01/14 15:49:28;;;;;;;0.73;0.70;;;0.30;99.90;;;;;;5012594;28;20521;-64
2024/01/14 15:51:53;;;;;;;0.40;0.40;;;0.20;99.90;;;;;;5019443;28;20188;-64
2024/01/14 15:54:19;;;;;;;0.40;0.40;;;0.30;99.90;;;;;;5034868;28;20960;-64
2024/01/14 15:56:44;;;;;;;0.40;0.40;;;0.20;99.90;;;;;;5030836;28;20277;-64
2024/01/14 15:59:10;;;;;;;0.40;0.40;;;0.10;99.90;;;;;;5016790;28;20251;-63
2024/01/14 16:01:36;;;;;;;0.40;0.40;;;0.10;99.90;;;;;;5015835;28;20182;-64
2024/01/14 16:04:01;;;;;;;0.40;0.40;;;0.00;99.90;;;;;;5016425;28;20174;-63
2024/01/14 16:06:27;;;;;;;0.50;0.50;;;-0.10;99.90;;;;;;5014939;28;20203;-64
2024/01/14 16:08:52;;;;;;;0.40;0.40;;;-0.10;99.90;;;;;;5015822;28;20656;-64
2024/01/14 16:11:18;;;;;;;0.40;0.40;;;-0.20;99.90;;;;;;5014603;28;20182;-64
2024/01/14 16:13:44;;;;;;;0.40;0.40;;;-0.30;99.90;;;;;;5014787;28;20185;-65
2024/01/14 16:16:09;;;;;;;0.43;0.43;;;-0.40;99.90;;;;;;5015015;28;20287;-65
2024/01/14 16:18:35;;;;;;;0.40;0.40;;;-0.40;99.90;;;;;;5015285;28;20182;-64
2024/01/14 16:21:02;;;;;;;0.40;0.40;;;-0.40;99.90;;;;;;5015352;28;20177;-65
2024/01/14 16:23:27;;;;;;;0.40;0.40;;;-0.50;99.90;;;;;;5015294;28;20528;-63
2024/01/14 16:25:53;;;;;;;0.50;0.50;;;-0.50;99.90;;;;;;5015277;28;20217;-63
2024/01/14 16:28:18;;;;;;;0.40;0.40;;;-0.60;99.90;;;;;;5015823;28;20177;-63
2024/01/14 16:30:44;;;;;;;0.40;0.40;;;-0.60;99.90;;;;;;5015126;28;20632;-65
2024/01/14 16:33:11;;;;;;;0.40;0.40;;;-0.60;99.90;;;;;;5015454;28;20519;-65
2024/01/14 16:35:37;;;;;;;0.47;0.47;;;-0.70;99.90;;;;;;5014762;28;20191;-63
2024/01/14 16:38:03;;;;;;;0.40;0.40;;;-0.70;99.90;;;;;;5015323;28;20200;-65
2024/01/14 16:40:29;;;;;;;0.43;0.43;;;-0.70;99.90;;;;;;4997572;28;20644;-64
2024/01/14 16:42:55;;;;;;;0.40;0.40;;;-0.80;99.90;;;;;;5015222;28;20182;-64
2024/01/14 16:45:21;;;;;;;0.50;0.50;;;-0.80;99.90;;;;;;5015199;28;20193;-65
2024/01/14 16:47:46;;;;;;;0.40;0.40;;;-0.80;99.90;;;;;;5015123;28;20174;-65
2024/01/14 16:50:12;;;;;;;0.40;0.40;;;-0.80;99.90;;;;;;5015422;28;20171;-63
2024/01/14 16:52:38;;;;;;;0.50;0.50;;;-0.90;99.90;;;;;;5029732;28;20204;-64
2024/01/14 16:55:04;;;;;;;0.40;0.40;;;-0.90;99.90;;;;;;5015042;28;20178;-64
2024/01/14 16:57:30;;;;;;;0.40;0.40;;;-0.90;99.90;;;;;;5018435;28;20202;-65
2024/01/14 16:59:57;;;;;;;0.30;0.30;;;-1.00;99.90;;;;;;5026961;28;20262;-67
2024/01/14 17:02:23;;;;;;;0.40;0.40;;;-1.10;99.90;;;;;;5013494;28;20176;-65
2024/01/14 17:04:49;;;;;;;0.30;0.30;;;-1.10;99.90;;;;;;5014217;28;20627;-62
2024/01/14 17:07:16;;;;;;;0.30;0.30;;;-1.10;99.90;;;;;;5014454;28;20456;-64
2024/01/14 17:09:42;;;;;;;0.93;0.93;;;-1.10;99.90;;;;;;5014763;28;20165;-64
2024/01/14 17:12:07;;;;;;;0.40;0.40;;;-1.20;99.90;;;;;;5014697;28;20192;-63
2024/01/14 17:14:33;;;;;;;0.47;0.47;;;-1.30;99.90;;;;;;5014166;28;20416;-67
2024/01/14 17:16:58;;;;;;;0.40;0.40;;;-1.40;99.90;;;;;;5014271;28;20553;-66
2024/01/14 17:19:24;;;;;;;0.30;0.30;;;-1.50;99.90;;;;;;5014225;28;20179;-65
2024/01/14 17:21:50;;;;;;;0.40;0.40;;;-1.60;99.90;;;;;;5014646;28;20167;-66
2024/01/14 17:24:16;;;;;;;0.40;0.40;;;-1.70;99.90;;;;;;4996940;28;20506;-64
2024/01/14 17:26:41;;;;;;;0.40;0.40;;;-1.70;99.90;;;;;;5014427;28;20805;-64
2024/01/14 17:29:07;;;;;;;0.50;0.50;;;-1.80;99.90;;;;;;5014673;28;20199;-64
2024/01/14 17:31:32;;;;;;;0.40;0.40;;;-1.90;99.90;;;;;;5013795;28;20184;-65
2024/01/14 17:33:58;;;;;;;0.40;0.40;;;-1.90;99.90;;;;;;5014149;28;20205;-65
2024/01/14 17:36:24;;;;;;;0.40;0.40;;;-2.00;99.90;;;;;;5000416;28;20390;-64
2024/01/14 17:38:52;;;;;;;0.40;0.40;;;-2.00;99.90;;;;;;4997627;28;20249;-63
2024/01/14 17:41:18;;;;;;;0.40;0.40;;;-2.00;99.90;;;;;;5008033;28;20176;-64
2024/01/14 17:43:44;;;;;;;0.47;0.47;;;-2.00;99.90;;;;;;4994664;28;20169;-68
2024/01/14 17:46:10;;;;;;;0.40;0.40;;;-2.10;99.90;;;;;;5009488;28;20429;-66
2024/01/14 17:48:37;;;;;;;0.43;0.43;;;-2.20;99.90;;;;;;4996850;28;20177;-65
2024/01/14 17:51:03;;;;;;;0.45;0.45;;;-2.10;99.90;;;;;;5013796;28;20567;-66
2024/01/14 17:53:29;;;;;;;0.40;0.40;;;-2.10;99.90;;;;;;5014015;28;20327;-65